sensor_id;sensor_type;location;lat;lon;timestamp;pressure;altitude;pressure_sealevel;temperature;humidity
53300;BME280;39187;48.476;8.310;2023-04-05T00:00:30;91495.16;;;-2.60;82.57
53300;BME280;39187;48.476;8.310;2023-04-05T00:02:58;91496.06;;;-2.56;83.54
53300;BME280;39187;48.476;8.310;2023-04-05T00:05:26;91494.00;;;-2.63;84.44
53300;BME280;39187;48.476;8.310;2023-04-05T00:07:56;91495.94;;;-2.60;83.17
53300;BME280;39187;48.476;8.310;2023-04-05T00:10:22;91500.38;;;-2.48;83.30
53300;BME280;39187;48.476;8.310;2023-04-05T00:12:48;91495.91;;;-2.72;83.58
53300;BME280;39187;48.476;8.310;2023-04-05T00:15:15;91496.16;;;-2.65;83.32
53300;BME280;39187;48.476;8.310;2023-04-05T00:17:41;91499.91;;;-2.74;83.88
53300;BME280;39187;48.476;8.310;2023-04-05T00:20:08;91492.56;;;-2.72;83.85
53300;BME280;39187;48.476;8.310;2023-04-05T00:22:36;91496.22;;;-2.73;83.86
53300;BME280;39187;48.476;8.310;2023-04-05T00:25:05;91488.00;;;-2.63;83.80
53300;BME280;39187;48.476;8.310;2023-04-05T00:27:30;91493.84;;;-2.91;84.52
53300;BME280;39187;48.476;8.310;2023-04-05T00:29:56;91490.28;;;-2.37;83.01
53300;BME280;39187;48.476;8.310;2023-04-05T00:32:22;91482.13;;;-2.48;82.94
53300;BME280;39187;48.476;8.310;2023-04-05T00:34:48;91472.47;;;-2.48;83.86
53300;BME280;39187;48.476;8.310;2023-04-05T00:37:14;91478.63;;;-3.01;86.99
53300;BME280;39187;48.476;8.310;2023-04-05T00:39:40;91477.38;;;-2.83;85.68
53300;BME280;39187;48.476;8.310;2023-04-05T00:42:06;91483.75;;;-2.80;86.01
53300;BME280;39187;48.476;8.310;2023-04-05T00:44:33;91476.06;;;-2.52;84.58
53300;BME280;39187;48.476;8.310;2023-04-05T00:47:03;91469.66;;;-2.67;84.85
53300;BME280;39187;48.476;8.310;2023-04-05T00:49:31;91475.41;;;-2.61;84.40
53300;BME280;39187;48.476;8.310;2023-04-05T00:51:57;91471.50;;;-2.67;84.52
53300;BME280;39187;48.476;8.310;2023-04-05T00:54:23;91464.09;;;-2.41;82.85
53300;BME280;39187;48.476;8.310;2023-04-05T00:56:50;91462.81;;;-2.47;82.99
53300;BME280;39187;48.476;8.310;2023-04-05T00:59:18;91464.34;;;-2.58;83.99
53300;BME280;39187;48.476;8.310;2023-04-05T01:01:44;91463.69;;;-2.67;84.51
53300;BME280;39187;48.476;8.310;2023-04-05T01:04:24;91454.13;;;-2.88;84.77
53300;BME280;39187;48.476;8.310;2023-04-05T01:09:44;91448.41;;;-2.57;84.35
53300;BME280;39187;48.476;8.310;2023-04-05T01:12:16;91452.41;;;-2.59;83.71
53300;BME280;39187;48.476;8.310;2023-04-05T01:14:46;91452.28;;;-2.51;83.10
53300;BME280;39187;48.476;8.310;2023-04-05T01:17:12;91441.63;;;-2.33;82.76
53300;BME280;39187;48.476;8.310;2023-04-05T01:19:38;91444.31;;;-2.30;81.78
53300;BME280;39187;48.476;8.310;2023-04-05T01:22:44;91434.38;;;-2.40;82.50
53300;BME280;39187;48.476;8.310;2023-04-05T01:25:35;91440.47;;;-2.72;82.99
53300;BME280;39187;48.476;8.310;2023-04-05T01:33:51;91424.94;;;-2.57;84.07
53300;BME280;39187;48.476;8.310;2023-04-05T01:36:32;91421.91;;;-2.71;84.45
53300;BME280;39187;48.476;8.310;2023-04-05T01:39:04;91423.22;;;-2.77;84.50
53300;BME280;39187;48.476;8.310;2023-04-05T01:41:30;91420.25;;;-2.88;84.87
53300;BME280;39187;48.476;8.310;2023-04-05T01:43:56;91414.84;;;-2.58;82.52
53300;BME280;39187;48.476;8.310;2023-04-05T01:46:21;91416.16;;;-2.89;82.94
53300;BME280;39187;48.476;8.310;2023-04-05T01:48:47;91412.25;;;-2.70;82.58
53300;BME280;39187;48.476;8.310;2023-04-05T01:51:12;91416.16;;;-2.64;81.87
53300;BME280;39187;48.476;8.310;2023-04-05T01:53:38;91409.31;;;-2.57;80.80
53300;BME280;39187;48.476;8.310;2023-04-05T01:56:03;91413.63;;;-2.61;82.17
53300;BME280;39187;48.476;8.310;2023-04-05T01:58:29;91409.94;;;-2.48;81.92
53300;BME280;39187;48.476;8.310;2023-04-05T02:00:55;91403.41;;;-2.42;80.73
53300;BME280;39187;48.476;8.310;2023-04-05T02:03:24;91407.66;;;-2.49;80.85
53300;BME280;39187;48.476;8.310;2023-04-05T02:05:49;91402.53;;;-2.33;80.70
53300;BME280;39187;48.476;8.310;2023-04-05T02:08:16;91401.13;;;-2.43;80.72
53300;BME280;39187;48.476;8.310;2023-04-05T02:10:41;91403.88;;;-2.64;82.22
53300;BME280;39187;48.476;8.310;2023-04-05T02:13:07;91400.38;;;-2.31;80.27
53300;BME280;39187;48.476;8.310;2023-04-05T02:15:32;91402.06;;;-2.23;79.52
53300;BME280;39187;48.476;8.310;2023-04-05T02:17:58;91399.94;;;-2.46;80.46
53300;BME280;39187;48.476;8.310;2023-04-05T02:20:27;91394.00;;;-3.07;84.21
53300;BME280;39187;48.476;8.310;2023-04-05T02:22:53;91398.25;;;-3.14;85.06
53300;BME280;39187;48.476;8.310;2023-04-05T02:25:19;91399.25;;;-2.95;84.68
53300;BME280;39187;48.476;8.310;2023-04-05T02:27:45;91396.19;;;-2.85;84.09
53300;BME280;39187;48.476;8.310;2023-04-05T02:30:11;91396.28;;;-2.93;84.36
53300;BME280;39187;48.476;8.310;2023-04-05T02:32:39;91398.78;;;-2.85;84.40
53300;BME280;39187;48.476;8.310;2023-04-05T02:35:07;91394.66;;;-2.86;81.39
53300;BME280;39187;48.476;8.310;2023-04-05T02:37:33;91399.88;;;-2.86;82.75
53300;BME280;39187;48.476;8.310;2023-04-05T02:39:58;91396.59;;;-3.07;76.24
53300;BME280;39187;48.476;8.310;2023-04-05T02:42:24;91400.84;;;-3.02;78.63
53300;BME280;39187;48.476;8.310;2023-04-05T02:44:50;91400.31;;;-2.96;77.73
53300;BME280;39187;48.476;8.310;2023-04-05T02:47:16;91396.94;;;-2.84;78.41
53300;BME280;39187;48.476;8.310;2023-04-05T02:49:46;91392.81;;;-2.73;76.86
53300;BME280;39187;48.476;8.310;2023-04-05T02:52:13;91393.34;;;-2.67;76.64
53300;BME280;39187;48.476;8.310;2023-04-05T02:54:38;91395.84;;;-2.71;76.63
53300;BME280;39187;48.476;8.310;2023-04-05T02:57:04;91390.69;;;-2.43;75.11
53300;BME280;39187;48.476;8.310;2023-04-05T02:59:30;91389.13;;;-2.72;74.24
53300;BME280;39187;48.476;8.310;2023-04-05T03:01:55;91383.94;;;-2.84;74.46
53300;BME280;39187;48.476;8.310;2023-04-05T03:04:21;91381.63;;;-2.73;73.92
53300;BME280;39187;48.476;8.310;2023-04-05T03:06:46;91387.38;;;-2.68;73.49
53300;BME280;39187;48.476;8.310;2023-04-05T03:09:15;91387.38;;;-2.80;74.15
53300;BME280;39187;48.476;8.310;2023-04-05T03:11:40;91388.16;;;-2.79;74.27
53300;BME280;39187;48.476;8.310;2023-04-05T03:14:06;91386.75;;;-2.77;74.51
53300;BME280;39187;48.476;8.310;2023-04-05T03:16:31;91380.44;;;-2.64;73.17
53300;BME280;39187;48.476;8.310;2023-04-05T03:18:58;91384.44;;;-2.54;73.56
53300;BME280;39187;48.476;8.310;2023-04-05T03:21:24;91381.06;;;-2.55;73.48
53300;BME280;39187;48.476;8.310;2023-04-05T03:23:50;91380.34;;;-2.79;74.92
53300;BME280;39187;48.476;8.310;2023-04-05T03:26:16;91378.25;;;-2.62;73.48
53300;BME280;39187;48.476;8.310;2023-04-05T03:28:41;91374.03;;;-2.66;73.56
53300;BME280;39187;48.476;8.310;2023-04-05T03:31:10;91375.56;;;-2.77;73.78
53300;BME280;39187;48.476;8.310;2023-04-05T03:33:36;91366.69;;;-2.76;75.00
53300;BME280;39187;48.476;8.310;2023-04-05T03:36:02;91365.59;;;-2.75;75.34
53300;BME280;39187;48.476;8.310;2023-04-05T03:38:28;91368.53;;;-2.77;75.12
53300;BME280;39187;48.476;8.310;2023-04-05T03:40:53;91365.91;;;-2.65;74.47
53300;BME280;39187;48.476;8.310;2023-04-05T03:43:19;91358.97;;;-2.97;76.24
53300;BME280;39187;48.476;8.310;2023-04-05T03:45:44;91368.75;;;-2.82;75.16
53300;BME280;39187;48.476;8.310;2023-04-05T03:48:10;91366.34;;;-2.63;74.24
53300;BME280;39187;48.476;8.310;2023-04-05T03:50:35;91365.81;;;-3.05;75.06
53300;BME280;39187;48.476;8.310;2023-04-05T03:53:01;91360.72;;;-3.01;75.54
53300;BME280;39187;48.476;8.310;2023-04-05T03:55:28;91356.25;;;-2.64;73.55
53300;BME280;39187;48.476;8.310;2023-04-05T03:57:54;91350.84;;;-2.96;74.82
53300;BME280;39187;48.476;8.310;2023-04-05T04:00:20;91352.16;;;-2.90;73.98
53300;BME280;39187;48.476;8.310;2023-04-05T04:02:48;91352.03;;;-3.17;75.61
53300;BME280;39187;48.476;8.310;2023-04-05T04:05:15;91354.63;;;-2.93;74.89
53300;BME280;39187;48.476;8.310;2023-04-05T04:07:42;91358.00;;;-3.05;74.72
53300;BME280;39187;48.476;8.310;2023-04-05T04:10:10;91351.91;;;-2.85;74.13
53300;BME280;39187;48.476;8.310;2023-04-05T04:12:36;91357.69;;;-3.03;74.97
53300;BME280;39187;48.476;8.310;2023-04-05T04:15:02;91354.44;;;-2.88;74.91
53300;BME280;39187;48.476;8.310;2023-04-05T04:17:33;91356.16;;;-2.92;74.38
53300;BME280;39187;48.476;8.310;2023-04-05T04:19:59;91356.38;;;-3.09;75.25
53300;BME280;39187;48.476;8.310;2023-04-05T04:22:25;91360.94;;;-2.82;74.94
53300;BME280;39187;48.476;8.310;2023-04-05T04:25:00;91358.22;;;-2.98;76.23
53300;BME280;39187;48.476;8.310;2023-04-05T04:27:30;91352.25;;;-2.98;76.72
53300;BME280;39187;48.476;8.310;2023-04-05T04:29:55;91364.50;;;-2.99;76.09
53300;BME280;39187;48.476;8.310;2023-04-05T04:32:27;91349.75;;;-3.19;76.47
53300;BME280;39187;48.476;8.310;2023-04-05T04:35:14;91355.59;;;-2.86;75.58
53300;BME280;39187;48.476;8.310;2023-04-05T04:37:51;91348.13;;;-2.99;76.24
53300;BME280;39187;48.476;8.310;2023-04-05T04:40:27;91356.25;;;-3.25;76.64
53300;BME280;39187;48.476;8.310;2023-04-05T04:42:54;91353.44;;;-2.84;75.26
53300;BME280;39187;48.476;8.310;2023-04-05T04:45:23;91367.00;;;-3.14;76.04
53300;BME280;39187;48.476;8.310;2023-04-05T04:47:49;91364.84;;;-3.12;75.54
53300;BME280;39187;48.476;8.310;2023-04-05T04:50:18;91359.44;;;-3.07;76.17
53300;BME280;39187;48.476;8.310;2023-04-05T04:52:45;91365.81;;;-3.17;76.35
53300;BME280;39187;48.476;8.310;2023-04-05T04:55:11;91372.22;;;-3.14;75.71
53300;BME280;39187;48.476;8.310;2023-04-05T04:57:40;91372.53;;;-3.16;76.04
53300;BME280;39187;48.476;8.310;2023-04-05T05:00:10;91371.56;;;-2.99;75.86
53300;BME280;39187;48.476;8.310;2023-04-05T05:02:42;91366.78;;;-2.97;75.29
53300;BME280;39187;48.476;8.310;2023-04-05T05:05:09;91370.25;;;-2.81;73.84
53300;BME280;39187;48.476;8.310;2023-04-05T05:07:36;91368.97;;;-3.11;75.29
53300;BME280;39187;48.476;8.310;2023-04-05T05:10:02;91363.31;;;-2.89;74.47
53300;BME280;39187;48.476;8.310;2023-04-05T05:12:28;91366.56;;;-2.80;74.22
53300;BME280;39187;48.476;8.310;2023-04-05T05:14:56;91362.13;;;-3.16;74.75
53300;BME280;39187;48.476;8.310;2023-04-05T05:17:21;91358.41;;;-2.78;74.29
53300;BME280;39187;48.476;8.310;2023-04-05T05:19:47;91360.97;;;-2.54;74.15
53300;BME280;39187;48.476;8.310;2023-04-05T05:22:13;91367.97;;;-2.30;73.16
53300;BME280;39187;48.476;8.310;2023-04-05T05:24:39;91363.78;;;-2.07;72.04
53300;BME280;39187;48.476;8.310;2023-04-05T05:27:04;91366.16;;;-1.74;72.11
53300;BME280;39187;48.476;8.310;2023-04-05T05:29:30;91366.78;;;-1.34;69.72
53300;BME280;39187;48.476;8.310;2023-04-05T05:31:56;91359.97;;;-1.07;69.63
53300;BME280;39187;48.476;8.310;2023-04-05T05:34:21;91361.09;;;-0.57;68.42
53300;BME280;39187;48.476;8.310;2023-04-05T05:36:47;91365.06;;;-0.48;66.60
53300;BME280;39187;48.476;8.310;2023-04-05T05:39:12;91364.28;;;-0.13;64.22
53300;BME280;39187;48.476;8.310;2023-04-05T05:41:38;91363.31;;;0.14;63.46
53300;BME280;39187;48.476;8.310;2023-04-05T05:44:05;91369.75;;;0.39;63.18
53300;BME280;39187;48.476;8.310;2023-04-05T05:46:31;91360.22;;;0.70;60.13
53300;BME280;39187;48.476;8.310;2023-04-05T05:48:56;91368.78;;;0.48;60.31
53300;BME280;39187;48.476;8.310;2023-04-05T05:51:22;91370.28;;;0.68;60.13
53300;BME280;39187;48.476;8.310;2023-04-05T05:53:47;91364.69;;;0.69;59.96
53300;BME280;39187;48.476;8.310;2023-04-05T05:56:13;91374.66;;;0.83;57.41
53300;BME280;39187;48.476;8.310;2023-04-05T05:58:38;91372.19;;;1.16;56.84
53300;BME280;39187;48.476;8.310;2023-04-05T06:01:05;91378.00;;;1.78;55.58
53300;BME280;39187;48.476;8.310;2023-04-05T06:03:32;91380.09;;;1.95;55.43
53300;BME280;39187;48.476;8.310;2023-04-05T06:05:58;91374.81;;;2.59;53.72
53300;BME280;39187;48.476;8.310;2023-04-05T06:08:25;91380.22;;;2.73;53.20
53300;BME280;39187;48.476;8.310;2023-04-05T06:10:54;91376.78;;;2.65;52.09
53300;BME280;39187;48.476;8.310;2023-04-05T06:13:19;91376.31;;;2.97;52.41
53300;BME280;39187;48.476;8.310;2023-04-05T06:15:48;91372.38;;;2.76;51.47
53300;BME280;39187;48.476;8.310;2023-04-05T06:18:14;91367.66;;;3.37;51.34
53300;BME280;39187;48.476;8.310;2023-04-05T06:20:43;91363.50;;;3.36;50.59
53300;BME280;39187;48.476;8.310;2023-04-05T06:23:10;91366.41;;;3.23;50.93
53300;BME280;39187;48.476;8.310;2023-04-05T06:25:35;91375.31;;;4.18;50.19
53300;BME280;39187;48.476;8.310;2023-04-05T06:28:05;91361.25;;;4.97;45.90
53300;BME280;39187;48.476;8.310;2023-04-05T06:30:31;91367.47;;;4.32;46.45
53300;BME280;39187;48.476;8.310;2023-04-05T06:32:58;91366.47;;;4.68;45.70
53300;BME280;39187;48.476;8.310;2023-04-05T06:35:23;91368.94;;;4.29;45.66
53300;BME280;39187;48.476;8.310;2023-04-05T06:37:50;91359.06;;;5.70;45.65
53300;BME280;39187;48.476;8.310;2023-04-05T06:40:16;91360.84;;;6.33;44.37
53300;BME280;39187;48.476;8.310;2023-04-05T06:42:42;91357.53;;;5.15;43.68
53300;BME280;39187;48.476;8.310;2023-04-05T06:45:09;91366.84;;;4.74;44.11
53300;BME280;39187;48.476;8.310;2023-04-05T06:47:36;91363.56;;;5.65;44.98
53300;BME280;39187;48.476;8.310;2023-04-05T06:50:04;91358.84;;;6.58;41.66
53300;BME280;39187;48.476;8.310;2023-04-05T06:52:29;91363.66;;;6.84;41.98
53300;BME280;39187;48.476;8.310;2023-04-05T06:54:55;91370.81;;;6.84;40.81
53300;BME280;39187;48.476;8.310;2023-04-05T06:57:21;91369.56;;;7.06;41.11
53300;BME280;39187;48.476;8.310;2023-04-05T06:59:46;91366.34;;;7.40;40.38
53300;BME280;39187;48.476;8.310;2023-04-05T07:02:12;91357.44;;;8.09;39.41
53300;BME280;39187;48.476;8.310;2023-04-05T07:04:38;91364.28;;;8.02;37.21
53300;BME280;39187;48.476;8.310;2023-04-05T07:07:04;91354.69;;;7.75;39.24
53300;BME280;39187;48.476;8.310;2023-04-05T07:09:34;91361.28;;;8.41;37.59
53300;BME280;39187;48.476;8.310;2023-04-05T07:12:05;91363.06;;;6.41;37.77
53300;BME280;39187;48.476;8.310;2023-04-05T07:14:35;91359.63;;;6.52;38.87
53300;BME280;39187;48.476;8.310;2023-04-05T07:17:05;91353.00;;;7.50;37.93
53300;BME280;39187;48.476;8.310;2023-04-05T07:19:31;91357.81;;;8.07;38.09
53300;BME280;39187;48.476;8.310;2023-04-05T07:21:58;91363.03;;;8.18;37.89
53300;BME280;39187;48.476;8.310;2023-04-05T07:24:23;91368.03;;;8.50;36.44
53300;BME280;39187;48.476;8.310;2023-04-05T07:26:49;91375.94;;;6.25;37.85
53300;BME280;39187;48.476;8.310;2023-04-05T07:29:15;91378.81;;;6.70;37.87
53300;BME280;39187;48.476;8.310;2023-04-05T07:31:41;91378.59;;;6.22;39.52
53300;BME280;39187;48.476;8.310;2023-04-05T07:34:06;91377.13;;;6.07;40.64
53300;BME280;39187;48.476;8.310;2023-04-05T07:36:32;91382.66;;;4.63;41.37
53300;BME280;39187;48.476;8.310;2023-04-05T07:38:58;91383.72;;;6.71;39.03
53300;BME280;39187;48.476;8.310;2023-04-05T07:41:24;91380.94;;;5.88;38.75
53300;BME280;39187;48.476;8.310;2023-04-05T07:43:50;91372.59;;;6.11;38.38
53300;BME280;39187;48.476;8.310;2023-04-05T07:46:16;91372.13;;;6.40;38.26
53300;BME280;39187;48.476;8.310;2023-04-05T07:48:42;91383.53;;;5.84;39.34
53300;BME280;39187;48.476;8.310;2023-04-05T07:51:08;91391.34;;;4.71;40.75
53300;BME280;39187;48.476;8.310;2023-04-05T07:53:36;91384.13;;;4.57;42.35
53300;BME280;39187;48.476;8.310;2023-04-05T07:56:06;91390.34;;;5.39;41.49
53300;BME280;39187;48.476;8.310;2023-04-05T07:58:32;91380.34;;;6.60;40.11
53300;BME280;39187;48.476;8.310;2023-04-05T08:01:02;91381.91;;;7.27;37.91
53300;BME280;39187;48.476;8.310;2023-04-05T08:03:28;91384.81;;;6.84;38.72
53300;BME280;39187;48.476;8.310;2023-04-05T08:05:55;91388.84;;;5.95;39.51
53300;BME280;39187;48.476;8.310;2023-04-05T08:08:21;91387.63;;;5.00;41.87
53300;BME280;39187;48.476;8.310;2023-04-05T08:10:47;91383.94;;;5.44;41.57
53300;BME280;39187;48.476;8.310;2023-04-05T08:13:12;91387.34;;;6.01;40.57
53300;BME280;39187;48.476;8.310;2023-04-05T08:15:39;91380.44;;;7.22;38.10
53300;BME280;39187;48.476;8.310;2023-04-05T08:18:04;91387.75;;;7.01;38.62
53300;BME280;39187;48.476;8.310;2023-04-05T08:20:30;91386.09;;;6.41;38.72
53300;BME280;39187;48.476;8.310;2023-04-05T08:22:56;91382.28;;;6.53;39.51
53300;BME280;39187;48.476;8.310;2023-04-05T08:25:21;91376.75;;;7.06;39.04
53300;BME280;39187;48.476;8.310;2023-04-05T08:27:47;91382.31;;;7.77;37.80
53300;BME280;39187;48.476;8.310;2023-04-05T08:30:12;91381.63;;;6.20;39.89
53300;BME280;39187;48.476;8.310;2023-04-05T08:32:38;91385.81;;;5.93;39.04
53300;BME280;39187;48.476;8.310;2023-04-05T08:35:04;91378.59;;;6.22;38.47
53300;BME280;39187;48.476;8.310;2023-04-05T08:37:33;91376.28;;;6.41;37.43
53300;BME280;39187;48.476;8.310;2023-04-05T08:40:00;91381.06;;;6.78;38.41
53300;BME280;39187;48.476;8.310;2023-04-05T08:42:29;91381.31;;;7.57;37.69
53300;BME280;39187;48.476;8.310;2023-04-05T08:44:58;91391.34;;;7.87;37.81
53300;BME280;39187;48.476;8.310;2023-04-05T08:47:28;91393.84;;;6.91;37.05
53300;BME280;39187;48.476;8.310;2023-04-05T08:49:54;91394.38;;;6.50;38.38
53300;BME280;39187;48.476;8.310;2023-04-05T08:52:20;91397.53;;;5.92;38.93
53300;BME280;39187;48.476;8.310;2023-04-05T08:54:45;91387.00;;;7.55;37.69
53300;BME280;39187;48.476;8.310;2023-04-05T08:57:12;91394.81;;;7.18;38.33
53300;BME280;39187;48.476;8.310;2023-04-05T08:59:38;91388.81;;;6.20;37.73
53300;BME280;39187;48.476;8.310;2023-04-05T09:02:24;91390.16;;;6.67;37.43
53300;BME280;39187;48.476;8.310;2023-04-05T09:04:51;91382.56;;;6.76;37.00
53300;BME280;39187;48.476;8.310;2023-04-05T09:07:19;91394.19;;;6.96;38.76
53300;BME280;39187;48.476;8.310;2023-04-05T09:09:53;91391.91;;;7.02;37.88
53300;BME280;39187;48.476;8.310;2023-04-05T09:12:21;91393.00;;;7.04;37.96
53300;BME280;39187;48.476;8.310;2023-04-05T09:14:47;91394.78;;;7.29;36.65
53300;BME280;39187;48.476;8.310;2023-04-05T09:17:16;91389.81;;;7.31;37.34
53300;BME280;39187;48.476;8.310;2023-04-05T09:19:42;91384.63;;;7.72;36.49
53300;BME280;39187;48.476;8.310;2023-04-05T09:22:09;91390.34;;;7.08;37.07
53300;BME280;39187;48.476;8.310;2023-04-05T09:24:37;91382.41;;;7.08;37.56
53300;BME280;39187;48.476;8.310;2023-04-05T09:27:11;91384.56;;;7.27;37.27
53300;BME280;39187;48.476;8.310;2023-04-05T09:29:38;91390.91;;;6.71;37.19
53300;BME280;39187;48.476;8.310;2023-04-05T09:32:05;91390.56;;;7.35;37.85
53300;BME280;39187;48.476;8.310;2023-04-05T09:34:33;91395.78;;;6.83;38.13
53300;BME280;39187;48.476;8.310;2023-04-05T09:36:59;91389.88;;;7.75;36.05
53300;BME280;39187;48.476;8.310;2023-04-05T09:39:31;91393.63;;;6.42;38.02
53300;BME280;39187;48.476;8.310;2023-04-05T09:42:11;91381.56;;;6.34;39.16
53300;BME280;39187;48.476;8.310;2023-04-05T09:44:57;91387.53;;;6.63;38.38
53300;BME280;39187;48.476;8.310;2023-04-05T09:47:28;91387.72;;;5.89;39.82
53300;BME280;39187;48.476;8.310;2023-04-05T09:52:39;91389.59;;;5.56;38.43
53300;BME280;39187;48.476;8.310;2023-04-05T09:55:06;91382.00;;;6.08;38.06
53300;BME280;39187;48.476;8.310;2023-04-05T09:57:40;91385.88;;;6.94;36.72
53300;BME280;39187;48.476;8.310;2023-04-05T10:00:18;91381.94;;;6.36;38.81
53300;BME280;39187;48.476;8.310;2023-04-05T10:02:45;91389.16;;;6.22;38.17
53300;BME280;39187;48.476;8.310;2023-04-05T10:05:16;91395.97;;;6.19;38.11
53300;BME280;39187;48.476;8.310;2023-04-05T10:07:42;91406.78;;;4.72;40.06
53300;BME280;39187;48.476;8.310;2023-04-05T10:10:09;91395.97;;;5.16;40.34
53300;BME280;39187;48.476;8.310;2023-04-05T10:12:39;91394.88;;;5.81;39.38
53300;BME280;39187;48.476;8.310;2023-04-05T10:15:09;91404.66;;;5.38;38.44
53300;BME280;39187;48.476;8.310;2023-04-05T10:17:57;91388.81;;;5.70;38.94
53300;BME280;39187;48.476;8.310;2023-04-05T10:20:29;91392.97;;;6.07;38.73
53300;BME280;39187;48.476;8.310;2023-04-05T10:23:10;91395.22;;;5.27;39.62
53300;BME280;39187;48.476;8.310;2023-04-05T10:25:46;91395.09;;;4.70;41.16
53300;BME280;39187;48.476;8.310;2023-04-05T10:28:34;91386.16;;;5.13;40.78
53300;BME280;39187;48.476;8.310;2023-04-05T10:33:45;91392.19;;;5.32;39.92
53300;BME280;39187;48.476;8.310;2023-04-05T10:36:38;91384.59;;;4.88;41.48
53300;BME280;39187;48.476;8.310;2023-04-05T10:39:27;91388.03;;;4.99;40.73
53300;BME280;39187;48.476;8.310;2023-04-05T10:44:41;91380.50;;;5.15;40.30
53300;BME280;39187;48.476;8.310;2023-04-05T10:47:10;91383.81;;;4.76;41.46
53300;BME280;39187;48.476;8.310;2023-04-05T10:49:48;91381.75;;;4.31;42.34
53300;BME280;39187;48.476;8.310;2023-04-05T10:52:16;91383.94;;;5.47;43.02
53300;BME280;39187;48.476;8.310;2023-04-05T10:54:43;91382.72;;;4.84;40.48
53300;BME280;39187;48.476;8.310;2023-04-05T10:57:09;91383.84;;;4.94;40.69
53300;BME280;39187;48.476;8.310;2023-04-05T10:59:40;91384.59;;;4.84;40.73
53300;BME280;39187;48.476;8.310;2023-04-05T11:02:07;91384.34;;;4.24;40.91
53300;BME280;39187;48.476;8.310;2023-04-05T11:04:33;91385.44;;;4.12;40.88
53300;BME280;39187;48.476;8.310;2023-04-05T11:07:15;91383.72;;;4.44;40.90
53300;BME280;39187;48.476;8.310;2023-04-05T11:09:54;91385.59;;;4.44;41.02
53300;BME280;39187;48.476;8.310;2023-04-05T11:15:30;91376.63;;;4.59;40.55
53300;BME280;39187;48.476;8.310;2023-04-05T11:18:08;91368.06;;;4.04;42.00
53300;BME280;39187;48.476;8.310;2023-04-05T11:21:24;91374.94;;;4.23;41.90
53300;BME280;39187;48.476;8.310;2023-04-05T11:23:30;91371.50;;;3.50;42.90
53300;BME280;39187;48.476;8.310;2023-04-05T11:26:03;91373.69;;;3.41;42.32
53300;BME280;39187;48.476;8.310;2023-04-05T11:28:33;91369.75;;;3.68;43.25
53300;BME280;39187;48.476;8.310;2023-04-05T11:31:12;91367.75;;;4.16;41.37
53300;BME280;39187;48.476;8.310;2023-04-05T11:33:53;91364.94;;;3.81;42.31
53300;BME280;39187;48.476;8.310;2023-04-05T11:36:42;91366.06;;;3.76;42.66
53300;BME280;39187;48.476;8.310;2023-04-05T11:41:46;91362.59;;;3.65;43.48
53300;BME280;39187;48.476;8.310;2023-04-05T11:44:15;91355.25;;;3.99;42.12
53300;BME280;39187;48.476;8.310;2023-04-05T11:46:42;91359.78;;;3.95;42.79
53300;BME280;39187;48.476;8.310;2023-04-05T11:49:07;91358.03;;;3.58;43.24
53300;BME280;39187;48.476;8.310;2023-04-05T11:51:33;91347.78;;;3.43;44.11
53300;BME280;39187;48.476;8.310;2023-04-05T11:53:59;91355.66;;;3.39;43.92
53300;BME280;39187;48.476;8.310;2023-04-05T11:56:25;91353.59;;;3.70;43.42
53300;BME280;39187;48.476;8.310;2023-04-05T11:58:50;91350.22;;;3.73;42.95
53300;BME280;39187;48.476;8.310;2023-04-05T12:01:16;91345.09;;;3.90;43.73
53300;BME280;39187;48.476;8.310;2023-04-05T12:03:42;91341.00;;;4.03;43.27
53300;BME280;39187;48.476;8.310;2023-04-05T12:06:08;91340.69;;;4.16;42.21
53300;BME280;39187;48.476;8.310;2023-04-05T12:08:44;91334.66;;;4.19;43.90
53300;BME280;39187;48.476;8.310;2023-04-05T12:11:25;91340.63;;;4.01;46.02
53300;BME280;39187;48.476;8.310;2023-04-05T12:14:00;91326.78;;;4.22;42.63
53300;BME280;39187;48.476;8.310;2023-04-05T12:16:27;91331.06;;;4.59;42.68
53300;BME280;39187;48.476;8.310;2023-04-05T12:18:54;91330.28;;;4.62;44.33
53300;BME280;39187;48.476;8.310;2023-04-05T12:21:21;91321.19;;;4.34;42.47
53300;BME280;39187;48.476;8.310;2023-04-05T12:23:48;91329.84;;;4.42;43.38
53300;BME280;39187;48.476;8.310;2023-04-05T12:26:14;91329.38;;;4.08;44.19
53300;BME280;39187;48.476;8.310;2023-04-05T12:28:52;91321.06;;;4.06;43.43
53300;BME280;39187;48.476;8.310;2023-04-05T12:33:59;91320.44;;;4.34;42.75
53300;BME280;39187;48.476;8.310;2023-04-05T12:36:26;91320.34;;;4.16;43.64
53300;BME280;39187;48.476;8.310;2023-04-05T12:38:53;91321.59;;;4.40;42.63
53300;BME280;39187;48.476;8.310;2023-04-05T12:41:26;91315.16;;;4.34;43.61
53300;BME280;39187;48.476;8.310;2023-04-05T12:43:53;91322.31;;;4.33;43.76
53300;BME280;39187;48.476;8.310;2023-04-05T12:46:40;91317.09;;;4.48;44.45
53300;BME280;39187;48.476;8.310;2023-04-05T12:49:06;91318.47;;;4.17;43.08
53300;BME280;39187;48.476;8.310;2023-04-05T12:51:34;91327.53;;;4.23;42.32
53300;BME280;39187;48.476;8.310;2023-04-05T12:54:00;91317.03;;;4.33;41.92
53300;BME280;39187;48.476;8.310;2023-04-05T12:56:28;91330.56;;;4.21;42.20
53300;BME280;39187;48.476;8.310;2023-04-05T12:58:57;91316.72;;;4.53;42.14
53300;BME280;39187;48.476;8.310;2023-04-05T13:01:23;91323.13;;;4.62;41.69
53300;BME280;39187;48.476;8.310;2023-04-05T13:03:48;91312.44;;;4.16;41.78
53300;BME280;39187;48.476;8.310;2023-04-05T13:06:15;91315.47;;;4.18;42.18
53300;BME280;39187;48.476;8.310;2023-04-05T13:08:41;91310.69;;;4.52;41.64
53300;BME280;39187;48.476;8.310;2023-04-05T13:11:06;91313.41;;;4.73;41.61
53300;BME280;39187;48.476;8.310;2023-04-05T13:13:31;91307.38;;;4.83;41.96
53300;BME280;39187;48.476;8.310;2023-04-05T13:15:58;91308.81;;;4.46;41.78
53300;BME280;39187;48.476;8.310;2023-04-05T13:18:24;91312.47;;;4.20;41.94
53300;BME280;39187;48.476;8.310;2023-04-05T13:20:49;91315.94;;;4.38;42.15
53300;BME280;39187;48.476;8.310;2023-04-05T13:23:15;91308.81;;;4.46;42.21
53300;BME280;39187;48.476;8.310;2023-04-05T13:25:42;91300.47;;;4.33;41.70
53300;BME280;39187;48.476;8.310;2023-04-05T13:28:09;91306.59;;;4.76;41.80
53300;BME280;39187;48.476;8.310;2023-04-05T13:30:36;91292.31;;;4.98;41.67
53300;BME280;39187;48.476;8.310;2023-04-05T13:33:01;91295.34;;;5.14;41.27
53300;BME280;39187;48.476;8.310;2023-04-05T13:35:29;91299.09;;;5.06;41.50
53300;BME280;39187;48.476;8.310;2023-04-05T13:37:54;91312.28;;;4.85;41.60